KESC

Delta County Airport

Escanaba, Michigan, USA
METAR KESC 161456Z AUTO 28008KT 10SM -RA OVC023 02/M01 A2973 RMK AO2 RAE1357B17SNB1357E17 SLP091 P0000 60000 T00171011 53016 FZRANO
Observed Flight Rules
Nov-16 @ 14:56 UTC (an hour ago) Marginal Visual Flight Rules
Wind Visibility Clouds Conditions
280° at 8 knots 10 miles
  • Overcast at 2,300' AGL
  • Light Rain
Temperatures Readings Precipitation
Current 2°C / 36°F
Dewpoint -1°C / 30°F
Humidity 81%
Altimeter 29.73" Hg
Pressure 1009.1 hPa
Elevation 187
Current Rain 0.005
METAR KESC 161456Z AUTO 28008KT 10SM -RA OVC023 02/M01 A2973 RMK AO2 RAE1357B17SNB1357E17 SLP091 P0000 60000 T00171011 53016 FZRANO
Observed Flight Rules
Nov-16 @ 14:56 UTC
(an hour ago)
MVFR
Wind Visibility
280° at 8 knots 10 miles
Clouds
  • Overcast at 2,300' AGL
Conditions
  • Light Rain
Temperature Dewpoint
2°C / 36°F -1°C / 30°F
Humidity Altimeter Pressure
81% 29.73" Hg 1009.1 hPa
Current Rain
0.005